createdAt,value
2022-09-12T00:04:10.713Z,30
2022-09-12T00:14:12.604Z,32
2022-09-12T00:24:11.910Z,35
2022-09-12T00:34:12.058Z,33
2022-09-12T00:44:14.047Z,34
2022-09-12T00:54:14.557Z,34
2022-09-12T01:04:15.277Z,35
2022-09-12T01:14:14.509Z,36
2022-09-12T01:24:16.329Z,39
2022-09-12T01:34:15.598Z,38
2022-09-12T01:44:17.480Z,37
2022-09-12T01:54:16.930Z,40
2022-09-12T02:04:17.331Z,41
2022-09-12T02:14:18.999Z,40
2022-09-12T02:24:19.860Z,41
2022-09-12T02:34:21.047Z,42
2022-09-12T02:44:20.164Z,41
2022-09-12T02:54:20.596Z,41
2022-09-12T03:04:22.778Z,42
2022-09-12T03:14:21.727Z,43
2022-09-12T03:24:24.071Z,44
2022-09-12T03:34:25.170Z,43
2022-09-12T03:44:26.015Z,43
2022-09-12T03:54:26.805Z,45
2022-09-12T04:04:25.903Z,44
2022-09-12T04:14:27.843Z,41
2022-09-12T04:24:28.671Z,42
2022-09-12T04:34:28.031Z,41
2022-09-12T04:44:29.909Z,47
2022-09-12T04:54:28.753Z,44
2022-09-12T05:04:30.856Z,47
2022-09-12T05:14:31.853Z,41
2022-09-12T05:24:31.225Z,41
2022-09-12T05:34:33.725Z,41
2022-09-12T05:44:33.227Z,43
2022-09-12T05:54:35.155Z,45
2022-09-12T06:04:36.673Z,52
2022-09-12T06:14:36.820Z,52
2022-09-12T06:24:39.765Z,55
2022-09-12T06:34:39.502Z,57
2022-09-12T06:44:42.229Z,60
2022-09-12T06:54:47.638Z,67
2022-09-12T07:04:45.693Z,63
2022-09-12T07:14:48.234Z,62
2022-09-12T07:24:48.650Z,60
2022-09-12T07:34:54.694Z,52
2022-09-12T07:45:03.203Z,48
2022-09-12T07:55:09.629Z,43
2022-09-12T08:05:06.188Z,44
2022-09-12T08:15:02.440Z,43
2022-09-12T08:25:00.891Z,44
2022-09-12T08:35:01.038Z,42
2022-09-12T08:45:03.800Z,40
2022-09-12T08:55:04.522Z,39
2022-09-12T09:05:07.446Z,35
2022-09-12T09:15:09.202Z,31
2022-09-12T09:25:09.048Z,34
2022-09-12T09:35:15.922Z,31
2022-09-12T09:45:16.097Z,32
2022-09-12T09:55:19.763Z,32
2022-09-12T10:05:27.098Z,29
2022-09-12T10:15:33.404Z,25
2022-09-12T10:25:36.522Z,15
2022-09-12T10:35:36.879Z,14
2022-09-12T10:45:40.237Z,13
2022-09-12T10:55:41.018Z,10
2022-09-12T11:05:43.093Z,10
2022-09-12T11:15:46.139Z,10
2022-09-12T11:25:53.759Z,10
2022-09-12T11:35:55.986Z,10
2022-09-12T11:45:56.733Z,9
2022-09-12T11:55:56.597Z,10
2022-09-12T12:05:57.086Z,10
2022-09-12T12:15:57.017Z,8
2022-09-12T12:25:59.533Z,7
2022-09-12T12:36:06.417Z,7
2022-09-12T12:46:04.038Z,9
2022-09-12T12:56:03.843Z,6
2022-09-12T13:06:05.609Z,7
2022-09-12T13:16:07.539Z,8
2022-09-12T13:26:08.423Z,10
2022-09-12T13:36:08.521Z,8
2022-09-12T13:46:09.996Z,10
2022-09-12T13:56:11.040Z,7
2022-09-12T14:06:11.061Z,7
2022-09-12T14:16:13.816Z,6
2022-09-12T14:26:14.393Z,7
2022-09-12T14:36:14.693Z,10
2022-09-12T14:46:14.044Z,4
2022-09-12T14:56:14.504Z,6
2022-09-12T15:06:16.937Z,4
2022-09-12T15:16:14.653Z,6
2022-09-12T15:26:14.969Z,6
2022-09-12T15:36:21.350Z,6
2022-09-12T15:46:18.738Z,7
2022-09-12T15:56:20.415Z,6
2022-09-12T16:06:21.456Z,6
2022-09-12T16:16:21.344Z,8
2022-09-12T16:26:21.971Z,8
2022-09-12T16:36:22.473Z,10
2022-09-12T16:46:25.020Z,10
2022-09-12T16:56:37.085Z,7
2022-09-12T17:06:38.402Z,9
2022-09-12T17:16:37.459Z,10
2022-09-12T17:26:37.353Z,10
2022-09-12T17:36:37.070Z,11
2022-09-12T17:46:37.670Z,10
2022-09-12T17:56:37.733Z,11
2022-09-12T18:06:40.181Z,10
2022-09-12T18:16:41.030Z,14
2022-09-12T18:26:40.966Z,14
2022-09-12T18:36:41.685Z,14
2022-09-12T18:46:44.044Z,13
2022-09-12T18:56:42.938Z,14
2022-09-12T19:06:43.261Z,23
2022-09-12T19:16:43.226Z,25
2022-09-12T19:26:44.173Z,29
2022-09-12T19:36:47.812Z,30
2022-09-12T19:46:52.240Z,31
2022-09-12T19:56:49.428Z,31
2022-09-12T20:06:50.178Z,30
2022-09-12T20:16:51.354Z,31
2022-09-12T20:26:53.516Z,32
2022-09-12T20:36:53.164Z,30
2022-09-12T20:46:55.964Z,28
2022-09-12T20:56:55.611Z,30
2022-09-12T21:06:56.678Z,28
2022-09-12T21:16:59.333Z,31
2022-09-12T21:27:04.846Z,32
2022-09-12T21:37:03.921Z,32
2022-09-12T21:47:05.532Z,32
2022-09-12T21:57:06.612Z,32
2022-09-12T22:07:06.865Z,31
2022-09-12T22:17:07.463Z,30
2022-09-12T22:27:09.858Z,27
2022-09-12T22:37:11.125Z,28
2022-09-12T22:47:12.895Z,28
2022-09-12T22:57:15.006Z,29
2022-09-12T23:07:16.533Z,29
2022-09-12T23:17:16.708Z,34
2022-09-12T23:27:17.844Z,32
2022-09-12T23:37:18.947Z,30
2022-09-12T23:47:21.628Z,32
2022-09-12T23:57:21.636Z,30
